KBFM/BFM METAR and TAF weather

Enter ICAO airport designator
Station Type Date Time Source
KBFM METAR 2020/01/23 14:53 UTC NOAA

KBFM 231453Z 08010KT 10SM OVC023 12/03 A3012 RMK AO2 SLP199 60000 T01170033 51006


Station Type Date Time Source
KBFM Decoded METAR 2020/01/23 14:53 UTC NOAA

MOBILE DOWNTOWN AIRPORT, AL, United States (KBFM) 30-38N 88-04W 20M
Jan 23, 2020 - 09:53 AM EST / 2020.01.23 1453 UTC
Wind: from the E (080 degrees) at 12 MPH (10 KT):0
Visibility: 10 mile(s):0
Sky conditions: overcast
Temperature: 53.1 F (11.7 C)
Dew Point: 37.9 F (3.3 C)
Relative Humidity: 56%
Pressure (altimeter): 30.12 in. Hg (1019 hPa)
Pressure tendency: 0.02 inches (0.6 hPa) higher than three hours ago
ob: KBFM 231453Z 08010KT 10SM OVC023 12/03 A3012 RMK AO2 SLP199 60000 T01170033 51006
cycle: 15

Station Type Date Time Source
KBFM TAF 2020/01/23 12:22 UTC NOAA

TAF KBFM 231120Z 2312/2412 08008KT P6SM -SHRA BKN060
FM231700 10009KT P6SM OVC027
TEMPO 2318/2321 4SM SHRA OVC015
FM232100 11009KT 6SM SHRA OVC019 PROB30 2403/2404 4SM -SHRA OVC009
FM240400 16005KT P6SM BKN009 PROB30 2404/2406 4SM -SHRA OVC005
FM240800 28006KT P6SM BKN007

Example: see airport list